sensor_id;sensor_type;location;lat;lon;timestamp;pressure;altitude;pressure_sealevel;temperature;humidity
39739;BME280;25422;48.286;8.484;2022-12-16T00:01:13;92632.97;;;-4.20;100.00
39739;BME280;25422;48.286;8.484;2022-12-16T00:03:39;92633.31;;;-4.25;100.00
39739;BME280;25422;48.286;8.484;2022-12-16T00:06:06;92630.09;;;-4.27;100.00
39739;BME280;25422;48.286;8.484;2022-12-16T00:08:34;92634.69;;;-4.21;100.00
39739;BME280;25422;48.286;8.484;2022-12-16T00:11:00;92643.75;;;-4.17;100.00
39739;BME280;25422;48.286;8.484;2022-12-16T00:13:28;92652.44;;;-4.19;100.00
39739;BME280;25422;48.286;8.484;2022-12-16T00:15:54;92652.81;;;-4.24;100.00
39739;BME280;25422;48.286;8.484;2022-12-16T00:18:19;92657.00;;;-4.23;100.00
39739;BME280;25422;48.286;8.484;2022-12-16T00:20:46;92654.31;;;-4.21;100.00
39739;BME280;25422;48.286;8.484;2022-12-16T00:23:12;92654.78;;;-4.16;100.00
39739;BME280;25422;48.286;8.484;2022-12-16T00:25:40;92650.25;;;-4.24;100.00
39739;BME280;25422;48.286;8.484;2022-12-16T00:28:06;92653.41;;;-4.20;100.00
39739;BME280;25422;48.286;8.484;2022-12-16T00:30:31;92656.16;;;-4.24;100.00
39739;BME280;25422;48.286;8.484;2022-12-16T00:32:57;92652.69;;;-4.22;100.00
39739;BME280;25422;48.286;8.484;2022-12-16T00:35:22;92649.78;;;-4.18;100.00
39739;BME280;25422;48.286;8.484;2022-12-16T00:37:47;92642.59;;;-4.24;100.00
39739;BME280;25422;48.286;8.484;2022-12-16T00:40:13;92651.91;;;-4.23;100.00
39739;BME280;25422;48.286;8.484;2022-12-16T00:42:38;92655.72;;;-4.29;100.00
39739;BME280;25422;48.286;8.484;2022-12-16T00:45:04;92658.97;;;-4.27;100.00
39739;BME280;25422;48.286;8.484;2022-12-16T00:47:29;92649.69;;;-4.16;100.00
39739;BME280;25422;48.286;8.484;2022-12-16T00:49:54;92648.88;;;-4.28;100.00
39739;BME280;25422;48.286;8.484;2022-12-16T00:52:20;92654.91;;;-4.29;100.00
39739;BME280;25422;48.286;8.484;2022-12-16T00:54:45;92658.88;;;-4.36;100.00
39739;BME280;25422;48.286;8.484;2022-12-16T00:57:11;92660.13;;;-4.31;100.00
39739;BME280;25422;48.286;8.484;2022-12-16T00:59:36;92671.63;;;-4.36;100.00
39739;BME280;25422;48.286;8.484;2022-12-16T01:02:02;92677.78;;;-4.39;100.00
39739;BME280;25422;48.286;8.484;2022-12-16T01:04:27;92664.44;;;-4.43;100.00
39739;BME280;25422;48.286;8.484;2022-12-16T01:06:52;92658.63;;;-4.33;100.00
39739;BME280;25422;48.286;8.484;2022-12-16T01:09:19;92658.38;;;-4.30;100.00
39739;BME280;25422;48.286;8.484;2022-12-16T01:11:44;92665.25;;;-4.31;100.00
39739;BME280;25422;48.286;8.484;2022-12-16T01:14:09;92658.16;;;-4.38;100.00
39739;BME280;25422;48.286;8.484;2022-12-16T01:16:35;92658.41;;;-4.42;100.00
39739;BME280;25422;48.286;8.484;2022-12-16T01:19:00;92672.44;;;-4.36;100.00
39739;BME280;25422;48.286;8.484;2022-12-16T01:21:26;92673.25;;;-4.35;100.00
39739;BME280;25422;48.286;8.484;2022-12-16T01:23:51;92672.09;;;-4.31;100.00
39739;BME280;25422;48.286;8.484;2022-12-16T01:26:17;92669.88;;;-4.36;100.00
39739;BME280;25422;48.286;8.484;2022-12-16T01:28:43;92670.25;;;-4.41;100.00
39739;BME280;25422;48.286;8.484;2022-12-16T01:31:09;92674.88;;;-4.46;100.00
39739;BME280;25422;48.286;8.484;2022-12-16T01:33:35;92676.03;;;-4.38;100.00
39739;BME280;25422;48.286;8.484;2022-12-16T01:36:02;92678.94;;;-4.43;100.00
39739;BME280;25422;48.286;8.484;2022-12-16T01:38:28;92681.59;;;-4.33;100.00
39739;BME280;25422;48.286;8.484;2022-12-16T01:40:54;92687.19;;;-4.28;100.00
39739;BME280;25422;48.286;8.484;2022-12-16T01:43:23;92697.38;;;-4.40;100.00
39739;BME280;25422;48.286;8.484;2022-12-16T01:45:49;92694.28;;;-4.43;100.00
39739;BME280;25422;48.286;8.484;2022-12-16T01:48:31;92706.44;;;-4.35;100.00
39739;BME280;25422;48.286;8.484;2022-12-16T01:51:04;92711.09;;;-4.41;100.00
39739;BME280;25422;48.286;8.484;2022-12-16T01:53:31;92713.06;;;-4.44;100.00
39739;BME280;25422;48.286;8.484;2022-12-16T01:55:58;92716.06;;;-4.28;100.00
39739;BME280;25422;48.286;8.484;2022-12-16T01:58:28;92705.97;;;-4.29;100.00
39739;BME280;25422;48.286;8.484;2022-12-16T02:00:54;92724.22;;;-4.34;100.00
39739;BME280;25422;48.286;8.484;2022-12-16T02:03:21;92718.97;;;-4.32;100.00
39739;BME280;25422;48.286;8.484;2022-12-16T02:05:47;92713.28;;;-4.25;100.00
39739;BME280;25422;48.286;8.484;2022-12-16T02:08:16;92710.84;;;-4.26;100.00
39739;BME280;25422;48.286;8.484;2022-12-16T02:13:20;92716.31;;;-4.31;100.00
39739;BME280;25422;48.286;8.484;2022-12-16T02:16:34;92719.22;;;-4.24;100.00
39739;BME280;25422;48.286;8.484;2022-12-16T02:19:03;92717.34;;;-4.22;100.00
39739;BME280;25422;48.286;8.484;2022-12-16T02:22:15;92722.47;;;-4.33;100.00
39739;BME280;25422;48.286;8.484;2022-12-16T02:27:26;92721.75;;;-4.35;100.00
39739;BME280;25422;48.286;8.484;2022-12-16T02:30:24;92724.91;;;-4.32;100.00
39739;BME280;25422;48.286;8.484;2022-12-16T02:35:47;92728.84;;;-4.39;100.00
39739;BME280;25422;48.286;8.484;2022-12-16T02:41:22;92734.19;;;-4.42;100.00
39739;BME280;25422;48.286;8.484;2022-12-16T02:44:05;92734.63;;;-4.48;100.00
39739;BME280;25422;48.286;8.484;2022-12-16T02:46:38;92738.22;;;-4.51;100.00
39739;BME280;25422;48.286;8.484;2022-12-16T02:49:37;92740.00;;;-4.51;100.00
39739;BME280;25422;48.286;8.484;2022-12-16T02:51:54;92742.06;;;-4.57;100.00
39739;BME280;25422;48.286;8.484;2022-12-16T02:54:20;92746.56;;;-4.60;100.00
39739;BME280;25422;48.286;8.484;2022-12-16T02:59:26;92751.13;;;-4.64;100.00
39739;BME280;25422;48.286;8.484;2022-12-16T03:04:51;92767.66;;;-4.69;100.00
39739;BME280;25422;48.286;8.484;2022-12-16T03:07:21;92771.97;;;-4.70;100.00
39739;BME280;25422;48.286;8.484;2022-12-16T03:09:50;92759.56;;;-4.75;100.00
39739;BME280;25422;48.286;8.484;2022-12-16T03:12:19;92768.13;;;-4.76;100.00
39739;BME280;25422;48.286;8.484;2022-12-16T03:14:49;92772.19;;;-4.73;100.00
39739;BME280;25422;48.286;8.484;2022-12-16T03:17:15;92775.66;;;-4.74;100.00
39739;BME280;25422;48.286;8.484;2022-12-16T03:19:44;92771.72;;;-4.67;100.00
39739;BME280;25422;48.286;8.484;2022-12-16T03:22:17;92774.41;;;-4.68;100.00
39739;BME280;25422;48.286;8.484;2022-12-16T03:24:44;92775.22;;;-4.68;100.00
39739;BME280;25422;48.286;8.484;2022-12-16T03:27:18;92767.00;;;-4.60;100.00
39739;BME280;25422;48.286;8.484;2022-12-16T03:29:52;92769.91;;;-4.53;100.00
39739;BME280;25422;48.286;8.484;2022-12-16T03:32:25;92770.94;;;-4.56;100.00
39739;BME280;25422;48.286;8.484;2022-12-16T03:35:19;92764.06;;;-4.67;100.00
39739;BME280;25422;48.286;8.484;2022-12-16T03:37:49;92774.41;;;-4.68;100.00
39739;BME280;25422;48.286;8.484;2022-12-16T03:40:16;92771.03;;;-4.69;100.00
39739;BME280;25422;48.286;8.484;2022-12-16T03:42:42;92778.84;;;-4.59;100.00
39739;BME280;25422;48.286;8.484;2022-12-16T03:45:13;92784.97;;;-4.62;100.00
39739;BME280;25422;48.286;8.484;2022-12-16T03:47:41;92783.47;;;-4.64;100.00
39739;BME280;25422;48.286;8.484;2022-12-16T03:50:06;92782.53;;;-4.63;100.00
39739;BME280;25422;48.286;8.484;2022-12-16T03:52:32;92783.25;;;-4.61;100.00
39739;BME280;25422;48.286;8.484;2022-12-16T03:54:57;92777.19;;;-4.60;100.00
39739;BME280;25422;48.286;8.484;2022-12-16T03:57:22;92781.88;;;-4.54;100.00
39739;BME280;25422;48.286;8.484;2022-12-16T03:59:48;92784.19;;;-4.51;100.00
39739;BME280;25422;48.286;8.484;2022-12-16T04:02:13;92782.53;;;-4.63;100.00
39739;BME280;25422;48.286;8.484;2022-12-16T04:04:38;92783.09;;;-4.71;100.00
39739;BME280;25422;48.286;8.484;2022-12-16T04:07:04;92790.28;;;-4.76;100.00
39739;BME280;25422;48.286;8.484;2022-12-16T04:09:44;92796.31;;;-4.77;100.00
39739;BME280;25422;48.286;8.484;2022-12-16T04:12:10;92803.63;;;-4.72;100.00
39739;BME280;25422;48.286;8.484;2022-12-16T04:14:54;92807.31;;;-4.77;100.00
39739;BME280;25422;48.286;8.484;2022-12-16T04:17:38;92817.22;;;-4.72;100.00
39739;BME280;25422;48.286;8.484;2022-12-16T04:20:27;92814.75;;;-4.74;100.00
39739;BME280;25422;48.286;8.484;2022-12-16T04:23:12;92820.81;;;-4.63;100.00
39739;BME280;25422;48.286;8.484;2022-12-16T04:25:57;92824.03;;;-4.72;100.00
39739;BME280;25422;48.286;8.484;2022-12-16T04:28:22;92829.97;;;-4.72;100.00
39739;BME280;25422;48.286;8.484;2022-12-16T04:30:48;92831.25;;;-4.66;100.00
39739;BME280;25422;48.286;8.484;2022-12-16T04:33:14;92837.03;;;-4.76;100.00
39739;BME280;25422;48.286;8.484;2022-12-16T04:35:58;92835.13;;;-4.85;100.00
39739;BME280;25422;48.286;8.484;2022-12-16T04:38:42;92835.28;;;-4.75;100.00
39739;BME280;25422;48.286;8.484;2022-12-16T04:41:26;92839.59;;;-4.76;100.00
39739;BME280;25422;48.286;8.484;2022-12-16T04:44:10;92835.03;;;-4.83;100.00
39739;BME280;25422;48.286;8.484;2022-12-16T04:46:54;92858.81;;;-4.83;100.00
39739;BME280;25422;48.286;8.484;2022-12-16T04:49:39;92852.88;;;-4.83;100.00
39739;BME280;25422;48.286;8.484;2022-12-16T04:52:23;92852.56;;;-4.79;100.00
39739;BME280;25422;48.286;8.484;2022-12-16T04:55:08;92860.31;;;-4.80;100.00
39739;BME280;25422;48.286;8.484;2022-12-16T04:57:56;92867.63;;;-4.87;100.00
39739;BME280;25422;48.286;8.484;2022-12-16T05:00:41;92867.97;;;-4.80;100.00
39739;BME280;25422;48.286;8.484;2022-12-16T05:03:26;92874.81;;;-4.81;100.00
39739;BME280;25422;48.286;8.484;2022-12-16T05:06:11;92882.34;;;-4.79;100.00
39739;BME280;25422;48.286;8.484;2022-12-16T05:08:55;92880.25;;;-4.85;100.00
39739;BME280;25422;48.286;8.484;2022-12-16T05:11:39;92886.28;;;-4.86;100.00
39739;BME280;25422;48.286;8.484;2022-12-16T05:14:23;92887.69;;;-4.82;100.00
39739;BME280;25422;48.286;8.484;2022-12-16T05:17:07;92890.09;;;-4.92;100.00
39739;BME280;25422;48.286;8.484;2022-12-16T05:19:51;92899.34;;;-4.91;100.00
39739;BME280;25422;48.286;8.484;2022-12-16T05:22:35;92896.47;;;-4.86;100.00
39739;BME280;25422;48.286;8.484;2022-12-16T05:25:19;92902.06;;;-4.81;100.00
39739;BME280;25422;48.286;8.484;2022-12-16T05:28:03;92897.44;;;-4.76;100.00
39739;BME280;25422;48.286;8.484;2022-12-16T05:30:47;92890.13;;;-4.81;100.00
39739;BME280;25422;48.286;8.484;2022-12-16T05:33:31;92892.25;;;-4.75;100.00
39739;BME280;25422;48.286;8.484;2022-12-16T05:36:15;92900.56;;;-4.84;100.00
39739;BME280;25422;48.286;8.484;2022-12-16T05:38:59;92901.97;;;-4.80;100.00
39739;BME280;25422;48.286;8.484;2022-12-16T05:41:43;92904.94;;;-4.86;100.00
39739;BME280;25422;48.286;8.484;2022-12-16T05:44:27;92905.50;;;-4.94;100.00
39739;BME280;25422;48.286;8.484;2022-12-16T05:47:11;92918.25;;;-4.94;100.00
39739;BME280;25422;48.286;8.484;2022-12-16T05:49:54;92916.56;;;-4.82;100.00
39739;BME280;25422;48.286;8.484;2022-12-16T05:52:40;92920.41;;;-4.76;100.00
39739;BME280;25422;48.286;8.484;2022-12-16T05:55:24;92925.41;;;-4.75;100.00
39739;BME280;25422;48.286;8.484;2022-12-16T05:58:08;92921.22;;;-4.76;100.00
39739;BME280;25422;48.286;8.484;2022-12-16T06:00:52;92920.50;;;-4.78;100.00
39739;BME280;25422;48.286;8.484;2022-12-16T06:03:36;92930.53;;;-4.75;100.00
39739;BME280;25422;48.286;8.484;2022-12-16T06:06:21;92930.53;;;-4.75;100.00
39739;BME280;25422;48.286;8.484;2022-12-16T06:09:05;92931.97;;;-4.83;100.00
39739;BME280;25422;48.286;8.484;2022-12-16T06:11:50;92940.16;;;-4.91;100.00
39739;BME280;25422;48.286;8.484;2022-12-16T06:14:34;92944.06;;;-4.98;100.00
39739;BME280;25422;48.286;8.484;2022-12-16T06:17:19;92945.22;;;-5.02;100.00
39739;BME280;25422;48.286;8.484;2022-12-16T06:20:04;92951.22;;;-5.03;100.00
39739;BME280;25422;48.286;8.484;2022-12-16T06:22:53;92957.44;;;-5.08;100.00
39739;BME280;25422;48.286;8.484;2022-12-16T06:25:38;92963.50;;;-5.09;100.00
39739;BME280;25422;48.286;8.484;2022-12-16T06:28:23;92973.19;;;-5.14;100.00
39739;BME280;25422;48.286;8.484;2022-12-16T06:31:07;92970.53;;;-5.12;100.00
39739;BME280;25422;48.286;8.484;2022-12-16T06:33:52;92982.56;;;-5.14;100.00
39739;BME280;25422;48.286;8.484;2022-12-16T06:36:36;92977.38;;;-5.13;100.00
39739;BME280;25422;48.286;8.484;2022-12-16T06:39:20;92987.38;;;-5.10;100.00
39739;BME280;25422;48.286;8.484;2022-12-16T06:42:04;92990.59;;;-5.08;100.00
39739;BME280;25422;48.286;8.484;2022-12-16T06:44:48;92992.97;;;-5.04;100.00
39739;BME280;25422;48.286;8.484;2022-12-16T06:47:32;92999.50;;;-5.00;100.00
39739;BME280;25422;48.286;8.484;2022-12-16T06:50:16;93002.84;;;-5.00;100.00
39739;BME280;25422;48.286;8.484;2022-12-16T06:53:00;93005.41;;;-5.00;100.00
39739;BME280;25422;48.286;8.484;2022-12-16T06:55:44;93012.94;;;-4.98;100.00
39739;BME280;25422;48.286;8.484;2022-12-16T06:58:27;93025.47;;;-4.95;100.00
39739;BME280;25422;48.286;8.484;2022-12-16T07:01:11;93029.66;;;-4.94;100.00
39739;BME280;25422;48.286;8.484;2022-12-16T07:03:55;93037.31;;;-4.94;100.00
39739;BME280;25422;48.286;8.484;2022-12-16T07:06:49;93038.03;;;-4.92;100.00
39739;BME280;25422;48.286;8.484;2022-12-16T07:09:33;93037.94;;;-4.91;100.00
39739;BME280;25422;48.286;8.484;2022-12-16T07:12:17;93049.66;;;-4.88;100.00
39739;BME280;25422;48.286;8.484;2022-12-16T07:15:01;93052.09;;;-4.86;100.00
39739;BME280;25422;48.286;8.484;2022-12-16T07:17:45;93054.34;;;-4.82;100.00
39739;BME280;25422;48.286;8.484;2022-12-16T07:20:29;93072.91;;;-4.80;100.00
39739;BME280;25422;48.286;8.484;2022-12-16T07:23:13;93075.59;;;-4.81;100.00
39739;BME280;25422;48.286;8.484;2022-12-16T07:26:17;93079.66;;;-4.79;100.00
39739;BME280;25422;48.286;8.484;2022-12-16T07:29:01;93079.41;;;-4.63;100.00
39739;BME280;25422;48.286;8.484;2022-12-16T07:31:45;93084.72;;;-4.66;100.00
39739;BME280;25422;48.286;8.484;2022-12-16T07:34:28;93090.63;;;-4.65;100.00
39739;BME280;25422;48.286;8.484;2022-12-16T07:37:12;93096.25;;;-4.60;100.00
39739;BME280;25422;48.286;8.484;2022-12-16T07:39:56;93097.19;;;-4.61;100.00
39739;BME280;25422;48.286;8.484;2022-12-16T07:42:41;93097.47;;;-4.53;100.00
39739;BME280;25422;48.286;8.484;2022-12-16T07:45:25;93107.13;;;-4.45;100.00
39739;BME280;25422;48.286;8.484;2022-12-16T07:48:09;93113.38;;;-4.49;100.00
39739;BME280;25422;48.286;8.484;2022-12-16T07:50:54;93117.34;;;-4.45;100.00
39739;BME280;25422;48.286;8.484;2022-12-16T07:53:38;93116.03;;;-4.51;100.00
39739;BME280;25422;48.286;8.484;2022-12-16T07:56:22;93126.97;;;-4.49;100.00
39739;BME280;25422;48.286;8.484;2022-12-16T07:59:06;93130.44;;;-4.50;100.00
39739;BME280;25422;48.286;8.484;2022-12-16T08:01:49;93123.97;;;-4.43;100.00
39739;BME280;25422;48.286;8.484;2022-12-16T08:04:33;93134.53;;;-4.47;100.00
39739;BME280;25422;48.286;8.484;2022-12-16T08:07:17;93137.59;;;-4.42;100.00
39739;BME280;25422;48.286;8.484;2022-12-16T08:10:01;93140.22;;;-4.44;100.00
39739;BME280;25422;48.286;8.484;2022-12-16T08:12:45;93147.88;;;-4.44;100.00
39739;BME280;25422;48.286;8.484;2022-12-16T08:15:29;93154.94;;;-4.47;100.00
39739;BME280;25422;48.286;8.484;2022-12-16T08:18:13;93151.66;;;-4.49;100.00
39739;BME280;25422;48.286;8.484;2022-12-16T08:20:57;93159.03;;;-4.45;100.00
39739;BME280;25422;48.286;8.484;2022-12-16T08:23:41;93161.88;;;-4.49;100.00
39739;BME280;25422;48.286;8.484;2022-12-16T08:26:24;93165.56;;;-4.53;100.00
39739;BME280;25422;48.286;8.484;2022-12-16T08:29:09;93166.81;;;-4.59;100.00
39739;BME280;25422;48.286;8.484;2022-12-16T08:31:54;93176.59;;;-4.66;100.00
39739;BME280;25422;48.286;8.484;2022-12-16T08:34:37;93175.41;;;-4.73;100.00
39739;BME280;25422;48.286;8.484;2022-12-16T08:37:21;93182.03;;;-4.70;100.00
39739;BME280;25422;48.286;8.484;2022-12-16T08:40:05;93198.66;;;-4.52;100.00
39739;BME280;25422;48.286;8.484;2022-12-16T08:42:49;93197.22;;;-4.56;100.00
39739;BME280;25422;48.286;8.484;2022-12-16T08:45:33;93195.66;;;-4.33;100.00
39739;BME280;25422;48.286;8.484;2022-12-16T08:48:18;93202.81;;;-4.25;100.00
39739;BME280;25422;48.286;8.484;2022-12-16T08:51:04;93209.03;;;-4.29;100.00
39739;BME280;25422;48.286;8.484;2022-12-16T08:53:48;93212.31;;;-4.40;100.00
39739;BME280;25422;48.286;8.484;2022-12-16T08:56:32;93217.94;;;-4.35;100.00
39739;BME280;25422;48.286;8.484;2022-12-16T08:59:16;93221.53;;;-4.37;100.00
39739;BME280;25422;48.286;8.484;2022-12-16T09:02:00;93219.47;;;-4.32;100.00
39739;BME280;25422;48.286;8.484;2022-12-16T09:04:43;93232.22;;;-4.19;100.00
39739;BME280;25422;48.286;8.484;2022-12-16T09:07:27;93236.19;;;-4.15;100.00
39739;BME280;25422;48.286;8.484;2022-12-16T09:10:11;93237.84;;;-4.14;100.00
39739;BME280;25422;48.286;8.484;2022-12-16T09:13:11;93245.22;;;-4.22;100.00
39739;BME280;25422;48.286;8.484;2022-12-16T09:15:55;93252.75;;;-4.21;100.00
39739;BME280;25422;48.286;8.484;2022-12-16T09:18:39;93257.53;;;-4.03;100.00
39739;BME280;25422;48.286;8.484;2022-12-16T09:21:23;93260.72;;;-4.00;100.00
39739;BME280;25422;48.286;8.484;2022-12-16T09:24:07;93256.81;;;-3.93;100.00
39739;BME280;25422;48.286;8.484;2022-12-16T09:26:50;93262.72;;;-3.92;100.00
39739;BME280;25422;48.286;8.484;2022-12-16T09:29:34;93256.84;;;-3.68;100.00
39739;BME280;25422;48.286;8.484;2022-12-16T09:32:18;93260.78;;;-3.51;100.00
39739;BME280;25422;48.286;8.484;2022-12-16T09:35:02;93257.56;;;-3.66;100.00
39739;BME280;25422;48.286;8.484;2022-12-16T09:37:47;93263.38;;;-3.64;100.00
39739;BME280;25422;48.286;8.484;2022-12-16T09:40:31;93259.03;;;-3.75;100.00
39739;BME280;25422;48.286;8.484;2022-12-16T09:52:31;93263.75;;;-3.82;100.00
39739;BME280;25422;48.286;8.484;2022-12-16T09:55:25;93273.16;;;-3.95;100.00
39739;BME280;25422;48.286;8.484;2022-12-16T09:58:12;93272.19;;;-4.05;100.00
39739;BME280;25422;48.286;8.484;2022-12-16T10:00:58;93270.34;;;-4.16;100.00
39739;BME280;25422;48.286;8.484;2022-12-16T10:03:42;93270.63;;;-4.08;100.00
39739;BME280;25422;48.286;8.484;2022-12-16T10:06:45;93275.47;;;-4.16;100.00
39739;BME280;25422;48.286;8.484;2022-12-16T10:10:16;93281.44;;;-4.04;100.00
39739;BME280;25422;48.286;8.484;2022-12-16T10:13:23;93287.47;;;-3.93;100.00
39739;BME280;25422;48.286;8.484;2022-12-16T10:16:36;93281.78;;;-4.09;100.00
39739;BME280;25422;48.286;8.484;2022-12-16T10:19:26;93284.72;;;-4.02;100.00
39739;BME280;25422;48.286;8.484;2022-12-16T10:22:26;93286.34;;;-3.88;100.00
39739;BME280;25422;48.286;8.484;2022-12-16T10:28:17;93276.03;;;-4.00;100.00
39739;BME280;25422;48.286;8.484;2022-12-16T10:31:14;93280.72;;;-3.81;100.00
39739;BME280;25422;48.286;8.484;2022-12-16T10:33:59;93283.50;;;-3.60;100.00
39739;BME280;25422;48.286;8.484;2022-12-16T10:36:45;93280.66;;;-3.55;100.00
39739;BME280;25422;48.286;8.484;2022-12-16T10:39:36;93285.59;;;-3.41;100.00
39739;BME280;25422;48.286;8.484;2022-12-16T10:42:30;93286.59;;;-3.06;100.00
39739;BME280;25422;48.286;8.484;2022-12-16T10:45:20;93281.47;;;-3.06;100.00
39739;BME280;25422;48.286;8.484;2022-12-16T10:48:09;93283.28;;;-2.95;100.00
39739;BME280;25422;48.286;8.484;2022-12-16T10:50:54;93283.53;;;-2.87;100.00
39739;BME280;25422;48.286;8.484;2022-12-16T10:53:38;93287.59;;;-2.60;100.00
39739;BME280;25422;48.286;8.484;2022-12-16T10:57:04;93294.91;;;-2.09;100.00
39739;BME280;25422;48.286;8.484;2022-12-16T11:00:10;93292.56;;;-1.66;100.00
39739;BME280;25422;48.286;8.484;2022-12-16T11:02:55;93297.56;;;-1.42;100.00
39739;BME280;25422;48.286;8.484;2022-12-16T11:05:39;93301.81;;;-1.20;100.00
39739;BME280;25422;48.286;8.484;2022-12-16T11:08:32;93297.69;;;-1.11;100.00
39739;BME280;25422;48.286;8.484;2022-12-16T11:11:22;93298.66;;;-1.24;100.00
39739;BME280;25422;48.286;8.484;2022-12-16T11:17:25;93296.22;;;-1.14;100.00
39739;BME280;25422;48.286;8.484;2022-12-16T11:26:16;93294.38;;;-1.23;100.00
39739;BME280;25422;48.286;8.484;2022-12-16T11:29:15;93301.34;;;-1.25;100.00
39739;BME280;25422;48.286;8.484;2022-12-16T11:32:16;93306.75;;;-1.51;100.00
39739;BME280;25422;48.286;8.484;2022-12-16T11:35:03;93312.59;;;-1.38;100.00
39739;BME280;25422;48.286;8.484;2022-12-16T11:37:49;93318.56;;;-1.05;100.00
39739;BME280;25422;48.286;8.484;2022-12-16T11:40:35;93317.84;;;-0.95;100.00
39739;BME280;25422;48.286;8.484;2022-12-16T11:43:20;93323.97;;;-0.75;100.00
39739;BME280;25422;48.286;8.484;2022-12-16T11:46:12;93327.47;;;-0.65;100.00
39739;BME280;25422;48.286;8.484;2022-12-16T11:48:59;93327.47;;;-0.76;100.00
39739;BME280;25422;48.286;8.484;2022-12-16T11:51:53;93322.66;;;-0.70;100.00
39739;BME280;25422;48.286;8.484;2022-12-16T11:54:44;93320.66;;;-0.98;100.00
39739;BME280;25422;48.286;8.484;2022-12-16T11:57:40;93328.41;;;-1.21;100.00
39739;BME280;25422;48.286;8.484;2022-12-16T12:00:27;93325.50;;;-1.28;100.00
39739;BME280;25422;48.286;8.484;2022-12-16T12:03:23;93324.88;;;-0.97;100.00
39739;BME280;25422;48.286;8.484;2022-12-16T12:06:30;93328.00;;;-0.94;100.00
39739;BME280;25422;48.286;8.484;2022-12-16T12:09:19;93332.59;;;-0.65;100.00
39739;BME280;25422;48.286;8.484;2022-12-16T12:16:34;93327.94;;;-1.15;100.00
39739;BME280;25422;48.286;8.484;2022-12-16T12:19:02;93340.16;;;-1.07;100.00
39739;BME280;25422;48.286;8.484;2022-12-16T12:21:54;93343.59;;;-1.29;100.00
39739;BME280;25422;48.286;8.484;2022-12-16T12:27:45;93354.06;;;-0.98;100.00
39739;BME280;25422;48.286;8.484;2022-12-16T12:30:32;93357.47;;;-1.32;100.00
39739;BME280;25422;48.286;8.484;2022-12-16T12:33:37;93362.16;;;-1.71;100.00
39739;BME280;25422;48.286;8.484;2022-12-16T12:36:40;93357.09;;;-2.07;100.00
39739;BME280;25422;48.286;8.484;2022-12-16T12:39:36;93365.94;;;-2.22;100.00
39739;BME280;25422;48.286;8.484;2022-12-16T12:42:51;93352.34;;;-2.47;100.00
39739;BME280;25422;48.286;8.484;2022-12-16T12:49:18;93371.53;;;-3.01;100.00
39739;BME280;25422;48.286;8.484;2022-12-16T12:55:29;93370.78;;;-3.27;100.00
39739;BME280;25422;48.286;8.484;2022-12-16T12:58:18;93379.59;;;-3.31;100.00
39739;BME280;25422;48.286;8.484;2022-12-16T13:01:05;93379.59;;;-3.31;100.00
39739;BME280;25422;48.286;8.484;2022-12-16T13:04:02;93383.28;;;-3.23;100.00
39739;BME280;25422;48.286;8.484;2022-12-16T13:06:49;93374.75;;;-3.23;100.00
39739;BME280;25422;48.286;8.484;2022-12-16T13:09:37;93371.19;;;-3.20;100.00
39739;BME280;25422;48.286;8.484;2022-12-16T13:12:30;93379.41;;;-3.28;100.00
39739;BME280;25422;48.286;8.484;2022-12-16T13:15:38;93374.66;;;-3.22;100.00
39739;BME280;25422;48.286;8.484;2022-12-16T13:18:26;93386.78;;;-2.99;100.00
39739;BME280;25422;48.286;8.484;2022-12-16T13:24:43;93384.78;;;-2.83;100.00
39739;BME280;25422;48.286;8.484;2022-12-16T13:27:28;93382.44;;;-2.62;100.00
39739;BME280;25422;48.286;8.484;2022-12-16T13:30:27;93392.84;;;-2.52;100.00
39739;BME280;25422;48.286;8.484;2022-12-16T13:33:26;93388.66;;;-2.77;100.00
39739;BME280;25422;48.286;8.484;2022-12-16T13:36:12;93398.38;;;-2.82;100.00
39739;BME280;25422;48.286;8.484;2022-12-16T13:39:00;93406.63;;;-2.90;100.00
39739;BME280;25422;48.286;8.484;2022-12-16T13:41:48;93407.31;;;-2.88;100.00
39739;BME280;25422;48.286;8.484;2022-12-16T13:53:18;93413.28;;;-3.37;100.00
39739;BME280;25422;48.286;8.484;2022-12-16T13:56:05;93417.88;;;-3.43;100.00
39739;BME280;25422;48.286;8.484;2022-12-16T13:58:57;93420.75;;;-3.47;100.00
39739;BME280;25422;48.286;8.484;2022-12-16T14:04:37;93439.88;;;-3.53;100.00
39739;BME280;25422;48.286;8.484;2022-12-16T14:07:23;93440.31;;;-3.59;100.00
39739;BME280;25422;48.286;8.484;2022-12-16T14:19:23;93464.75;;;-3.81;100.00
39739;BME280;25422;48.286;8.484;2022-12-16T14:22:26;93465.97;;;-3.86;100.00
39739;BME280;25422;48.286;8.484;2022-12-16T14:25:22;93468.22;;;-3.95;100.00
39739;BME280;25422;48.286;8.484;2022-12-16T14:31:13;93472.69;;;-3.98;100.00
39739;BME280;25422;48.286;8.484;2022-12-16T14:34:00;93481.47;;;-4.02;100.00
39739;BME280;25422;48.286;8.484;2022-12-16T14:36:45;93491.47;;;-3.99;100.00
39739;BME280;25422;48.286;8.484;2022-12-16T14:39:38;93500.06;;;-4.00;100.00
39739;BME280;25422;48.286;8.484;2022-12-16T14:42:29;93499.97;;;-3.99;100.00
39739;BME280;25422;48.286;8.484;2022-12-16T14:45:21;93505.00;;;-3.97;100.00
39739;BME280;25422;48.286;8.484;2022-12-16T14:48:34;93502.22;;;-3.94;100.00
39739;BME280;25422;48.286;8.484;2022-12-16T14:51:33;93511.34;;;-3.90;100.00
39739;BME280;25422;48.286;8.484;2022-12-16T14:54:30;93512.78;;;-3.86;100.00
39739;BME280;25422;48.286;8.484;2022-12-16T14:57:37;93519.81;;;-3.90;100.00
39739;BME280;25422;48.286;8.484;2022-12-16T15:00:22;93522.38;;;-3.90;100.00
39739;BME280;25422;48.286;8.484;2022-12-16T15:03:21;93527.25;;;-3.99;100.00
39739;BME280;25422;48.286;8.484;2022-12-16T15:06:10;93527.47;;;-4.02;100.00
39739;BME280;25422;48.286;8.484;2022-12-16T15:09:03;93523.38;;;-4.05;100.00
39739;BME280;25422;48.286;8.484;2022-12-16T15:11:50;93526.59;;;-4.16;100.00
39739;BME280;25422;48.286;8.484;2022-12-16T15:14:38;93531.19;;;-4.21;100.00
39739;BME280;25422;48.286;8.484;2022-12-16T15:17:24;93545.38;;;-4.17;100.00
39739;BME280;25422;48.286;8.484;2022-12-16T15:20:18;93548.94;;;-4.19;100.00
39739;BME280;25422;48.286;8.484;2022-12-16T15:23:11;93549.78;;;-4.19;100.00
39739;BME280;25422;48.286;8.484;2022-12-16T15:25:58;93551.50;;;-4.19;100.00
39739;BME280;25422;48.286;8.484;2022-12-16T15:28:43;93558.38;;;-4.20;100.00